Time;durP1;ratioP1;P1;durP2;ratioP2;P2;SDS_P1;SDS_P2;PMS_P1;PMS_P2;Temp;Humidity;BMP_temperature;BMP_pressure;BME280_temperature;BME280_humidity;BME280_pressure;Samples;Min_cycle;Max_cycle;Signal;HPM_P1;HPM_P2
2022/04/27 00:00:28;;;;;;;;;;;;;;;;;;5118961;27;19911;-75
2022/04/27 00:02:54;;;;;;;;;;;;;;;;;;5136871;27;19947;-76
2022/04/27 00:05:19;;;;;;;;;;;;;;;;;;5118848;27;20380;-75
2022/04/27 00:07:45;;;;;;;;;;;;;;;;;;5137482;27;19915;-75
2022/04/27 00:10:10;;;;;;;;;;;;;;;;;;5136803;27;20417;-75
2022/04/27 00:12:37;;;;;;;;;;;;;;;;;;5136972;27;20248;-76
2022/04/27 00:15:06;;;;;;;;;;;;;;;;;;5119085;27;20003;-76
2022/04/27 00:17:31;;;;;;;;;;;;;;;;;;5119281;27;20272;-76
2022/04/27 00:19:56;;;;;;;;;;;;;;;;;;5136611;27;19911;-76
2022/04/27 00:22:22;;;;;;;;;;;;;;;;;;5136483;27;19915;-76
2022/04/27 00:24:47;;;;;;;;;;;;;;;;;;5118643;27;20399;-76
2022/04/27 00:27:15;;;;;;;;;;;;;;;;;;5118525;27;19922;-76
2022/04/27 00:29:43;;;;;;;;;;;;;;;;;;5118613;27;19918;-75
2022/04/27 00:32:10;;;;;;;;;;;;;;;;;;5119273;27;20324;-76
2022/04/27 00:34:35;;;;;;;;;;;;;;;;;;5136288;27;19976;-76
2022/04/27 00:37:03;;;;;;;;;;;;;;;;;;5136429;27;20261;-76
2022/04/27 00:39:28;;;;;;;;;;;;;;;;;;5136310;27;19912;-76
2022/04/27 00:42:00;;;;;;;;;;;;;;;;;;5136273;27;19919;-76
2022/04/27 00:44:28;;;;;;;;;;;;;;;;;;5136674;27;19921;-76
2022/04/27 00:46:53;;;;;;;;;;;;;;;;;;5118537;27;19971;-76
2022/04/27 00:49:21;;;;;;;;;;;;;;;;;;5118112;28;20311;-77
2022/04/27 00:51:47;;;;;;;;;;;;;;;;;;5136145;27;19911;-76
2022/04/27 00:54:12;;;;;;;;;;;;;;;;;;5101239;27;19938;-76
2022/04/27 00:56:38;;;;;;;;;;;;;;;;;;5135978;27;19918;-76
2022/04/27 00:59:03;;;;;;;;;;;;;;;;;;5136138;27;19950;-76
2022/04/27 01:01:28;;;;;;;;;;;;;;;;;;5136326;27;20297;-77
2022/04/27 01:03:53;;;;;;;;;;;;;;;;;;5136111;28;20229;-76
2022/04/27 01:06:19;;;;;;;;;;;;;;;;;;5136096;28;20348;-75
2022/04/27 01:08:44;;;;;;;;;;;;;;;;;;5118627;28;19919;-75
2022/04/27 01:11:09;;;;;;;;;;;;;;;;;;5118775;28;20285;-76
2022/04/27 01:13:35;;;;;;;;;;;;;;;;;;5135974;28;20384;-75
2022/04/27 01:16:02;;;;;;;;;;;;;;;;;;5118083;28;20233;-75
2022/04/27 01:18:27;;;;;;;;;;;;;;;;;;5135943;28;19922;-75
2022/04/27 01:20:52;;;;;;;;;;;;;;;;;;5135988;28;19923;-75
2022/04/27 01:23:17;;;;;;;;;;;;;;;;;;5117795;28;20333;-76
2022/04/27 01:25:54;;;;;;;;;;;;;;;;;;5100763;28;20023;-76
2022/04/27 01:28:27;;;;;;;;;;;;;;;;;;5135864;28;19979;-76
2022/04/27 01:30:57;;;;;;;;;;;;;;;;;;5118183;28;19911;-75
2022/04/27 01:33:38;;;;;;;;;;;;;;;;;;5100010;28;19911;-76
2022/04/27 01:36:04;;;;;;;;;;;;;;;;;;5117639;28;20407;-75
2022/04/27 01:38:35;;;;;;;;;;;;;;;;;;5117638;28;20019;-75
2022/04/27 01:44:03;;;;;;;;;;;;;;;;;;5132325;27;19984;-77
2022/04/27 01:46:28;;;;;;;;;;;;;;;;;;5101197;28;19912;-78
2022/04/27 01:48:56;;;;;;;;;;;;;;;;;;5101261;28;20251;-78
2022/04/27 01:54:15;;;;;;;;;;;;;;;;;;5119541;28;19923;-78
2022/04/27 01:56:42;;;;;;;;;;;;;;;;;;5102374;28;20347;-78
2022/04/27 01:59:09;;;;;;;;;;;;;;;;;;5119372;28;19911;-78
2022/04/27 02:01:36;;;;;;;;;;;;;;;;;;5118647;28;20332;-78
2022/04/27 02:04:02;;;;;;;;;;;;;;;;;;5100548;28;20373;-77
2022/04/27 02:06:27;;;;;;;;;;;;;;;;;;5118466;28;19978;-76
2022/04/27 02:08:52;;;;;;;;;;;;;;;;;;5100772;28;19939;-76
2022/04/27 02:11:32;;;;;;;;;;;;;;;;;;5100555;28;19919;-76
2022/04/27 02:13:57;;;;;;;;;;;;;;;;;;5103073;28;19985;-77
2022/04/27 02:16:26;;;;;;;;;;;;;;;;;;5100689;28;20347;-77
2022/04/27 02:18:51;;;;;;;;;;;;;;;;;;5100777;28;20310;-77
2022/04/27 02:21:16;;;;;;;;;;;;;;;;;;5100619;28;19923;-76
2022/04/27 02:23:44;;;;;;;;;;;;;;;;;;5100725;28;20321;-76
2022/04/27 02:26:12;;;;;;;;;;;;;;;;;;5118268;28;20257;-77
2022/04/27 02:28:37;;;;;;;;;;;;;;;;;;5100759;28;19911;-77
2022/04/27 02:31:05;;;;;;;;;;;;;;;;;;5118790;28;20352;-76
2022/04/27 02:33:30;;;;;;;;;;;;;;;;;;5118107;28;19912;-77
2022/04/27 02:35:57;;;;;;;;;;;;;;;;;;5118127;28;19912;-76
2022/04/27 02:38:26;;;;;;;;;;;;;;;;;;5118086;28;20278;-76
2022/04/27 02:40:52;;;;;;;;;;;;;;;;;;5100048;28;20333;-76
2022/04/27 02:43:19;;;;;;;;;;;;;;;;;;5117976;28;19926;-76
2022/04/27 02:45:45;;;;;;;;;;;;;;;;;;5118955;27;19916;-76
2022/04/27 02:48:10;;;;;;;;;;;;;;;;;;5138388;27;20336;-76
2022/04/27 02:53:20;;;;;;;;;;;;;;;;;;5138498;27;19967;-76
2022/04/27 02:55:45;;;;;;;;;;;;;;;;;;5137163;27;20291;-76
2022/04/27 02:58:10;;;;;;;;;;;;;;;;;;5120306;27;19911;-76
2022/04/27 03:00:44;;;;;;;;;;;;;;;;;;5138240;27;19911;-77
2022/04/27 03:03:09;;;;;;;;;;;;;;;;;;5138421;27;19925;-77
2022/04/27 03:05:34;;;;;;;;;;;;;;;;;;5138096;27;20352;-78
2022/04/27 03:07:59;;;;;;;;;;;;;;;;;;5138686;27;19930;-77
2022/04/27 03:10:24;;;;;;;;;;;;;;;;;;5138086;27;19912;-78
2022/04/27 03:12:50;;;;;;;;;;;;;;;;;;5138067;27;20233;-77
2022/04/27 03:15:15;;;;;;;;;;;;;;;;;;5137900;27;19915;-77
2022/04/27 03:17:43;;;;;;;;;;;;;;;;;;5137931;27;20271;-77
2022/04/27 03:20:08;;;;;;;;;;;;;;;;;;5119719;27;19950;-77
2022/04/27 03:22:33;;;;;;;;;;;;;;;;;;5137769;27;20428;-78
2022/04/27 03:24:58;;;;;;;;;;;;;;;;;;5137837;27;19912;-77
2022/04/27 03:27:24;;;;;;;;;;;;;;;;;;5137522;27;19919;-77
2022/04/27 03:29:49;;;;;;;;;;;;;;;;;;5119692;27;20229;-77
2022/04/27 03:32:14;;;;;;;;;;;;;;;;;;5137894;27;19912;-76
2022/04/27 03:34:40;;;;;;;;;;;;;;;;;;5137335;27;19912;-77
2022/04/27 03:37:07;;;;;;;;;;;;;;;;;;5138077;27;19911;-77
2022/04/27 03:39:33;;;;;;;;;;;;;;;;;;5137368;27;19927;-77
2022/04/27 03:41:58;;;;;;;;;;;;;;;;;;5137368;27;19912;-77
2022/04/27 03:44:23;;;;;;;;;;;;;;;;;;5137379;27;19920;-76
2022/04/27 03:46:51;;;;;;;;;;;;;;;;;;5119258;27;20426;-77
2022/04/27 03:49:16;;;;;;;;;;;;;;;;;;5137467;27;19994;-78
2022/04/27 03:51:41;;;;;;;;;;;;;;;;;;5137398;27;20006;-78
2022/04/27 03:54:09;;;;;;;;;;;;;;;;;;5137495;27;20255;-78
2022/04/27 03:56:34;;;;;;;;;;;;;;;;;;5136992;27;19922;-76
2022/04/27 03:58:59;;;;;;;;;;;;;;;;;;5137109;27;19990;-77
2022/04/27 04:01:24;;;;;;;;;;;;;;;;;;5137250;27;19943;-77
2022/04/27 04:03:49;;;;;;;;;;;;;;;;;;5137132;27;19973;-77
2022/04/27 04:06:15;;;;;;;;;;;;;;;;;;5119168;27;19923;-77
2022/04/27 04:08:40;;;;;;;;;;;;;;;;;;5136602;27;19911;-77
2022/04/27 04:11:08;;;;;;;;;;;;;;;;;;5136800;27;19943;-77
2022/04/27 04:13:33;;;;;;;;;;;;;;;;;;5136725;27;19915;-76
2022/04/27 04:15:58;;;;;;;;;;;;;;;;;;5136808;27;20289;-77
2022/04/27 04:18:23;;;;;;;;;;;;;;;;;;5136739;27;19911;-77
2022/04/27 04:20:51;;;;;;;;;;;;;;;;;;5118502;27;19912;-77
2022/04/27 04:23:16;;;;;;;;;;;;;;;;;;5137075;27;19915;-77
2022/04/27 04:28:32;;;;;;;;;;;;;;;;;;5136658;27;19922;-78
2022/04/27 04:30:58;;;;;;;;;;;;;;;;;;5119772;27;19911;-78
2022/04/27 04:33:23;;;;;;;;;;;;;;;;;;5119037;27;19919;-77
2022/04/27 04:35:48;;;;;;;;;;;;;;;;;;5118408;28;20298;-77
2022/04/27 04:38:19;;;;;;;;;;;;;;;;;;5118454;27;19934;-77
2022/04/27 04:40:46;;;;;;;;;;;;;;;;;;5136278;27;19912;-77
2022/04/27 04:43:11;;;;;;;;;;;;;;;;;;5118625;27;19919;-77
2022/04/27 04:45:37;;;;;;;;;;;;;;;;;;5137032;27;19915;-78
2022/04/27 04:48:02;;;;;;;;;;;;;;;;;;5118945;27;20063;-76
2022/04/27 04:50:32;;;;;;;;;;;;;;;;;;5136148;27;19911;-76
2022/04/27 04:53:00;;;;;;;;;;;;;;;;;;5136236;27;20015;-76
2022/04/27 04:55:27;;;;;;;;;;;;;;;;;;5118051;27;19912;-76
2022/04/27 04:57:53;;;;;;;;;;;;;;;;;;5136059;27;19915;-76
2022/04/27 05:00:18;;;;;;;;;;;;;;;;;;5136111;27;19998;-76
2022/04/27 05:02:44;;;;;;;;;;;;;;;;;;5118075;28;19923;-77
2022/04/27 05:05:12;;;;;;;;;;;;;;;;;;5118213;28;19922;-77
2022/04/27 05:07:37;;;;;;;;;;;;;;;;;;5101451;28;19953;-77
2022/04/27 05:10:04;;;;;;;;;;;;;;;;;;5136200;28;19972;-77
2022/04/27 05:12:29;;;;;;;;;;;;;;;;;;5136848;28;19980;-77
2022/04/27 05:14:57;;;;;;;;;;;;;;;;;;5136073;28;20339;-76
2022/04/27 05:17:24;;;;;;;;;;;;;;;;;;5135989;28;20444;-77
2022/04/27 05:19:51;;;;;;;;;;;;;;;;;;5120452;27;20370;-77
2022/04/27 05:22:19;;;;;;;;;;;;;;;;;;5140322;27;20403;-77
2022/04/27 05:24:44;;;;;;;;;;;;;;;;;;5122177;27;19926;-77
2022/04/27 05:27:09;;;;;;;;;;;;;;;;;;5140805;27;19911;-78
2022/04/27 05:32:21;;;;;;;;;;;;;;;;;;5140143;27;19918;-77
2022/04/27 05:34:48;;;;;;;;;;;;;;;;;;5140049;27;19911;-78
2022/04/27 05:37:13;;;;;;;;;;;;;;;;;;5139906;27;19919;-78
2022/04/27 05:39:39;;;;;;;;;;;;;;;;;;5139924;27;20380;-78
2022/04/27 05:42:09;;;;;;;;;;;;;;;;;;5121852;27;20358;-78
2022/04/27 05:44:34;;;;;;;;;;;;;;;;;;5121259;27;20259;-78
2022/04/27 05:46:59;;;;;;;;;;;;;;;;;;5139748;27;19920;-77
2022/04/27 05:49:27;;;;;;;;;;;;;;;;;;5139807;27;19911;-78
2022/04/27 05:51:52;;;;;;;;;;;;;;;;;;5139644;27;19915;-78
2022/04/27 05:54:18;;;;;;;;;;;;;;;;;;5139418;27;20290;-80
2022/04/27 05:56:43;;;;;;;;;;;;;;;;;;5139420;27;19929;-78
2022/04/27 05:59:09;;;;;;;;;;;;;;;;;;5104301;27;20252;-79
2022/04/27 06:01:34;;;;;;;;;;;;;;;;;;5139584;27;19915;-78
2022/04/27 06:04:04;;;;;;;;;;;;;;;;;;5121603;27;19916;-78
2022/04/27 06:06:29;;;;;;;;;;;;;;;;;;5122555;27;19962;-78
2022/04/27 06:08:58;;;;;;;;;;;;;;;;;;5139351;27;19911;-78
2022/04/27 06:11:25;;;;;;;;;;;;;;;;;;5139421;27;19912;-78
2022/04/27 06:13:51;;;;;;;;;;;;;;;;;;5139220;27;20341;-78
2022/04/27 06:16:16;;;;;;;;;;;;;;;;;;5139506;27;19987;-78
2022/04/27 06:18:45;;;;;;;;;;;;;;;;;;5139097;27;19924;-78
2022/04/27 06:21:10;;;;;;;;;;;;;;;;;;5139113;27;19918;-77
2022/04/27 06:23:36;;;;;;;;;;;;;;;;;;5120975;27;20276;-78
2022/04/27 06:26:05;;;;;;;;;;;;;;;;;;5121070;27;19976;-78
2022/04/27 06:28:33;;;;;;;;;;;;;;;;;;5138868;27;19911;-78
2022/04/27 06:30:58;;;;;;;;;;;;;;;;;;5120643;27;20259;-78
2022/04/27 06:33:23;;;;;;;;;;;;;;;;;;5139118;27;19923;-79
2022/04/27 06:35:50;;;;;;;;;;;;;;;;;;5138852;27;19922;-79
2022/04/27 06:38:15;;;;;;;;;;;;;;;;;;5121166;27;19912;-78
2022/04/27 06:40:43;;;;;;;;;;;;;;;;;;5103576;27;20249;-77
2022/04/27 06:43:09;;;;;;;;;;;;;;;;;;5138805;27;19915;-78
2022/04/27 06:45:36;;;;;;;;;;;;;;;;;;5138736;27;20344;-78
2022/04/27 06:48:02;;;;;;;;;;;;;;;;;;5138579;27;19924;-79
2022/04/27 06:50:27;;;;;;;;;;;;;;;;;;5120577;27;19911;-78
2022/04/27 06:52:59;;;;;;;;;;;;;;;;;;5138541;27;20339;-77
2022/04/27 06:55:24;;;;;;;;;;;;;;;;;;5104577;27;19999;-78
2022/04/27 06:57:49;;;;;;;;;;;;;;;;;;5120407;27;20026;-78
2022/04/27 07:00:14;;;;;;;;;;;;;;;;;;5138552;27;19919;-79
2022/04/27 07:02:45;;;;;;;;;;;;;;;;;;5120295;27;19912;-78
2022/04/27 07:05:17;;;;;;;;;;;;;;;;;;5120475;27;19919;-78
2022/04/27 07:07:42;;;;;;;;;;;;;;;;;;5121065;27;19912;-77
2022/04/27 07:10:08;;;;;;;;;;;;;;;;;;5138326;27;19916;-78
2022/04/27 07:12:36;;;;;;;;;;;;;;;;;;5103314;27;20315;-77
2022/04/27 07:15:01;;;;;;;;;;;;;;;;;;5120460;27;19915;-77
2022/04/27 07:17:26;;;;;;;;;;;;;;;;;;5137902;27;19964;-77
2022/04/27 07:19:54;;;;;;;;;;;;;;;;;;5138018;27;19954;-77
2022/04/27 07:22:19;;;;;;;;;;;;;;;;;;5137842;27;19933;-77
2022/04/27 07:24:44;;;;;;;;;;;;;;;;;;5119607;27;20383;-77
2022/04/27 07:27:09;;;;;;;;;;;;;;;;;;5137753;27;19998;-77
2022/04/27 07:29:37;;;;;;;;;;;;;;;;;;5137742;27;19915;-77
2022/04/27 07:32:05;;;;;;;;;;;;;;;;;;5137558;27;19915;-77
2022/04/27 07:34:30;;;;;;;;;;;;;;;;;;5137654;27;20257;-77
2022/04/27 07:36:57;;;;;;;;;;;;;;;;;;5137431;27;19922;-76
2022/04/27 07:39:25;;;;;;;;;;;;;;;;;;5137558;27;19915;-77
2022/04/27 07:41:53;;;;;;;;;;;;;;;;;;5136792;27;19922;-77
2022/04/27 07:44:22;;;;;;;;;;;;;;;;;;5137107;27;19930;-76
2022/04/27 07:46:52;;;;;;;;;;;;;;;;;;5137223;27;20333;-77
2022/04/27 07:49:21;;;;;;;;;;;;;;;;;;5137359;27;19941;-77
2022/04/27 07:51:47;;;;;;;;;;;;;;;;;;5137046;27;20027;-77
2022/04/27 07:54:15;;;;;;;;;;;;;;;;;;5137228;27;19923;-76
2022/04/27 07:56:40;;;;;;;;;;;;;;;;;;5137027;27;19918;-76
2022/04/27 07:59:05;;;;;;;;;;;;;;;;;;5119224;27;20331;-76
2022/04/27 08:01:33;;;;;;;;;;;;;;;;;;5119070;27;19971;-77
2022/04/27 08:03:58;;;;;;;;;;;;;;;;;;5136695;27;20352;-76
2022/04/27 08:06:23;;;;;;;;;;;;;;;;;;5137011;27;19978;-77
2022/04/27 08:08:48;;;;;;;;;;;;;;;;;;5136923;27;19921;-76
2022/04/27 08:11:15;;;;;;;;;;;;;;;;;;5136931;27;19929;-77
2022/04/27 08:13:41;;;;;;;;;;;;;;;;;;5136719;27;20347;-77
2022/04/27 08:16:10;;;;;;;;;;;;;;;;;;5136944;27;19912;-77
2022/04/27 08:18:35;;;;;;;;;;;;;;;;;;5136781;27;19911;-78
2022/04/27 08:21:21;;;;;;;;;;;;;;;;;;5137000;27;19912;-77
2022/04/27 08:23:47;;;;;;;;;;;;;;;;;;5136470;27;20316;-77
2022/04/27 08:26:12;;;;;;;;;;;;;;;;;;5136991;27;19994;-77
2022/04/27 08:28:37;;;;;;;;;;;;;;;;;;5136504;27;19976;-76
2022/04/27 08:31:05;;;;;;;;;;;;;;;;;;5118403;27;19920;-77
2022/04/27 08:33:33;;;;;;;;;;;;;;;;;;5118835;27;20251;-76
2022/04/27 08:36:00;;;;;;;;;;;;;;;;;;5136360;27;19922;-76
2022/04/27 08:38:28;;;;;;;;;;;;;;;;;;5136353;27;19911;-76
2022/04/27 08:40:56;;;;;;;;;;;;;;;;;;5118316;27;19956;-75
2022/04/27 08:43:22;;;;;;;;;;;;;;;;;;5136243;27;20013;-75
2022/04/27 08:45:49;;;;;;;;;;;;;;;;;;5136377;27;20356;-76
2022/04/27 08:48:17;;;;;;;;;;;;;;;;;;5136105;27;20000;-77
2022/04/27 08:50:43;;;;;;;;;;;;;;;;;;5136486;27;19915;-76
2022/04/27 08:53:08;;;;;;;;;;;;;;;;;;5135482;27;19971;-76
2022/04/27 08:55:39;;;;;;;;;;;;;;;;;;5136161;27;19931;-75
2022/04/27 08:58:08;;;;;;;;;;;;;;;;;;5101171;27;19922;-76
2022/04/27 09:00:33;;;;;;;;;;;;;;;;;;5136026;27;19916;-77
2022/04/27 09:03:18;;;;;;;;;;;;;;;;;;5136219;27;20240;-77
2022/04/27 09:05:59;;;;;;;;;;;;;;;;;;5135869;28;19968;-77
2022/04/27 09:08:25;;;;;;;;;;;;;;;;;;5136263;28;20444;-77
2022/04/27 09:11:09;;;;;;;;;;;;;;;;;;5118038;28;19938;-77
2022/04/27 09:13:35;;;;;;;;;;;;;;;;;;5118048;28;19961;-78
2022/04/27 09:16:05;;;;;;;;;;;;;;;;;;5118548;28;19915;-78
2022/04/27 09:21:29;;;;;;;;;;;;;;;;;;5120863;28;19951;-78
2022/04/27 09:24:06;;;;;;;;;;;;;;;;;;5118084;28;20002;-80
2022/04/27 09:26:33;;;;;;;;;;;;;;;;;;5136053;28;19912;-78
2022/04/27 09:29:00;;;;;;;;;;;;;;;;;;5135881;28;19959;-78
2022/04/27 09:31:26;;;;;;;;;;;;;;;;;;5136265;28;19912;-78
2022/04/27 09:33:59;;;;;;;;;;;;;;;;;;5135742;28;19911;-78
2022/04/27 09:36:24;;;;;;;;;;;;;;;;;;5135958;28;19912;-79
2022/04/27 09:38:50;;;;;;;;;;;;;;;;;;5117994;28;20332;-78
2022/04/27 09:41:17;;;;;;;;;;;;;;;;;;5135891;28;19911;-79
2022/04/27 09:43:46;;;;;;;;;;;;;;;;;;5118740;28;19927;-78
2022/04/27 09:46:19;;;;;;;;;;;;;;;;;;5100917;28;19915;-79
2022/04/27 09:48:46;;;;;;;;;;;;;;;;;;5136085;28;20014;-79
2022/04/27 09:51:14;;;;;;;;;;;;;;;;;;5118403;28;19911;-78
2022/04/27 09:53:41;;;;;;;;;;;;;;;;;;5135858;28;19922;-79
2022/04/27 09:56:08;;;;;;;;;;;;;;;;;;5136176;28;19911;-79
2022/04/27 09:58:36;;;;;;;;;;;;;;;;;;5118289;28;20321;-79
2022/04/27 10:01:05;;;;;;;;;;;;;;;;;;5117793;28;19912;-78
2022/04/27 10:03:30;;;;;;;;;;;;;;;;;;5118011;28;19972;-78
2022/04/27 10:06:01;;;;;;;;;;;;;;;;;;5119732;27;20262;-79
2022/04/27 10:08:30;;;;;;;;;;;;;;;;;;5122018;27;19922;-77
2022/04/27 10:10:55;;;;;;;;;;;;;;;;;;5121603;27;19919;-80
2022/04/27 10:13:25;;;;;;;;;;;;;;;;;;5139331;27;19927;-79
2022/04/27 10:15:52;;;;;;;;;;;;;;;;;;5104447;27;19922;-79
2022/04/27 10:18:18;;;;;;;;;;;;;;;;;;5121487;27;19911;-78
2022/04/27 10:20:44;;;;;;;;;;;;;;;;;;5120999;27;19926;-79
2022/04/27 10:23:15;;;;;;;;;;;;;;;;;;5120857;27;19927;-76
2022/04/27 10:26:17;;;;;;;;;;;;;;;;;;5121869;27;20002;-76
2022/04/27 10:29:05;;;;;;;;;;;;;;;;;;5139320;27;19915;-76
2022/04/27 10:34:33;;;;;;;;;;;;;;;;;;5116864;28;20264;-76
2022/04/27 10:37:03;;;;;;;;;;;;;;;;;;5099479;28;19911;-74
2022/04/27 10:39:29;;;;;;;;;;;;;;;;;;5116746;28;20389;-74
2022/04/27 10:41:55;;;;;;;;;;;;;;;;;;5116409;28;20003;-78
2022/04/27 10:44:25;;;;;;;;;;;;;;;;;;5116138;28;20409;-75
2022/04/27 10:47:12;;;;;;;;;;;;;;;;;;5099709;28;20002;-76
2022/04/27 10:49:40;;;;;;;;;;;;;;;;;;5099669;28;19915;-78
2022/04/27 10:52:18;;;;;;;;;;;;;;;;;;5099071;28;19912;-77
2022/04/27 10:54:46;;;;;;;;;;;;;;;;;;5116369;28;19912;-75
2022/04/27 11:00:39;;;;;;;;;;;;;;;;;;5116107;28;19935;-77
2022/04/27 11:03:15;;;;;;;;;;;;;;;;;;5117285;28;19951;-76
2022/04/27 11:05:41;;;;;;;;;;;;;;;;;;5117958;28;19911;-77
2022/04/27 11:08:25;;;;;;;;;;;;;;;;;;5133620;27;19912;-76
2022/04/27 11:10:50;;;;;;;;;;;;;;;;;;5117516;28;19922;-76
2022/04/27 11:13:15;;;;;;;;;;;;;;;;;;5116455;28;19920;-76
2022/04/27 11:15:44;;;;;;;;;;;;;;;;;;5133641;27;19911;-76
2022/04/27 11:18:09;;;;;;;;;;;;;;;;;;5115085;28;20015;-76
2022/04/27 11:20:35;;;;;;;;;;;;;;;;;;5117356;28;19948;-77
2022/04/27 11:23:20;;;;;;;;;;;;;;;;;;5117195;28;20271;-76
2022/04/27 11:25:51;;;;;;;;;;;;;;;;;;5133574;27;19977;-77
2022/04/27 11:28:19;;;;;;;;;;;;;;;;;;5117550;28;19911;-78
2022/04/27 11:30:47;;;;;;;;;;;;;;;;;;5133044;27;19959;-77
2022/04/27 11:33:13;;;;;;;;;;;;;;;;;;5117107;28;19944;-78
2022/04/27 11:41:41;;;;;;;;;;;;;;;;;;5091267;28;19997;-75
2022/04/27 11:44:09;;;;;;;;;;;;;;;;;;5094554;28;19920;-74
2022/04/27 11:46:37;;;;;;;;;;;;;;;;;;5095004;28;20387;-76
2022/04/27 11:49:02;;;;;;;;;;;;;;;;;;5094528;28;19927;-76
2022/04/27 11:51:27;;;;;;;;;;;;;;;;;;5077685;28;19938;-78
2022/04/27 11:53:54;;;;;;;;;;;;;;;;;;5094520;28;19923;-79
2022/04/27 11:56:19;;;;;;;;;;;;;;;;;;5094684;28;19916;-77
2022/04/27 11:58:57;;;;;;;;;;;;;;;;;;5077539;28;19973;-80
2022/04/27 12:01:23;;;;;;;;;;;;;;;;;;5094725;28;19913;-82
2022/04/27 12:03:57;;;;;;;;;;;;;;;;;;5094673;28;19922;-82
2022/04/27 12:06:26;;;;;;;;;;;;;;;;;;5094274;28;19912;-77
2022/04/27 12:08:52;;;;;;;;;;;;;;;;;;5103153;28;19912;-79
2022/04/27 12:11:21;;;;;;;;;;;;;;;;;;5116545;28;20285;-79
2022/04/27 12:13:49;;;;;;;;;;;;;;;;;;5099646;28;19951;-77
2022/04/27 12:16:14;;;;;;;;;;;;;;;;;;5116052;28;19998;-79
2022/04/27 12:18:49;;;;;;;;;;;;;;;;;;5098355;28;19947;-80
2022/04/27 12:21:24;;;;;;;;;;;;;;;;;;5098672;28;19923;-86
2022/04/27 12:23:50;;;;;;;;;;;;;;;;;;5099439;28;20010;-79
2022/04/27 12:26:18;;;;;;;;;;;;;;;;;;5098443;28;20004;-77
2022/04/27 12:28:47;;;;;;;;;;;;;;;;;;5097892;28;20374;-78
2022/04/27 12:31:14;;;;;;;;;;;;;;;;;;5098274;28;19912;-77
2022/04/27 12:33:43;;;;;;;;;;;;;;;;;;5116183;28;19912;-77
2022/04/27 12:39:01;;;;;;;;;;;;;;;;;;5115909;28;19918;-75
2022/04/27 12:41:32;;;;;;;;;;;;;;;;;;5116874;28;19912;-77
2022/04/27 12:44:07;;;;;;;;;;;;;;;;;;5119590;27;19919;-74
2022/04/27 12:46:34;;;;;;;;;;;;;;;;;;5136927;27;19919;-75
2022/04/27 12:49:01;;;;;;;;;;;;;;;;;;5136744;27;20244;-76
2022/04/27 12:51:35;;;;;;;;;;;;;;;;;;5136342;27;19918;-75
2022/04/27 12:54:02;;;;;;;;;;;;;;;;;;5118650;28;19912;-78
2022/04/27 12:56:31;;;;;;;;;;;;;;;;;;5136232;27;20340;-78
2022/04/27 12:59:02;;;;;;;;;;;;;;;;;;5136490;27;19912;-78
2022/04/27 13:01:30;;;;;;;;;;;;;;;;;;5136299;27;20340;-79
2022/04/27 13:03:55;;;;;;;;;;;;;;;;;;5118632;28;19915;-79
2022/04/27 13:06:22;;;;;;;;;;;;;;;;;;5136263;27;19911;-77
2022/04/27 13:08:47;;;;;;;;;;;;;;;;;;5135798;28;19918;-80
2022/04/27 13:13:57;;;;;;;;;;;;;;;;;;5136278;28;19918;-79
2022/04/27 13:16:26;;;;;;;;;;;;;;;;;;5135998;28;19915;-79
2022/04/27 13:18:55;;;;;;;;;;;;;;;;;;5135956;28;19943;-79
2022/04/27 13:21:20;;;;;;;;;;;;;;;;;;5135757;28;19911;-79
2022/04/27 13:23:45;;;;;;;;;;;;;;;;;;5135676;28;19964;-79
2022/04/27 13:26:10;;;;;;;;;;;;;;;;;;5135816;28;20219;-78
2022/04/27 13:28:40;;;;;;;;;;;;;;;;;;5135914;28;20007;-81
2022/04/27 13:31:07;;;;;;;;;;;;;;;;;;5136037;28;20347;-79
2022/04/27 13:33:35;;;;;;;;;;;;;;;;;;5135885;28;20272;-79
2022/04/27 13:36:03;;;;;;;;;;;;;;;;;;5117731;28;19912;-80
2022/04/27 13:38:28;;;;;;;;;;;;;;;;;;5135717;28;19930;-78
2022/04/27 13:40:54;;;;;;;;;;;;;;;;;;5120025;27;19911;-79
2022/04/27 13:43:22;;;;;;;;;;;;;;;;;;5104533;27;19926;-80
2022/04/27 13:45:49;;;;;;;;;;;;;;;;;;5122214;27;19915;-79
2022/04/27 13:48:15;;;;;;;;;;;;;;;;;;5139921;27;19912;-80
2022/04/27 13:50:40;;;;;;;;;;;;;;;;;;5121662;27;19912;-79
2022/04/27 13:53:05;;;;;;;;;;;;;;;;;;5140204;27;19911;-78
2022/04/27 13:55:35;;;;;;;;;;;;;;;;;;5139605;27;20361;-78
2022/04/27 13:58:00;;;;;;;;;;;;;;;;;;5139789;27;19911;-77
2022/04/27 14:00:26;;;;;;;;;;;;;;;;;;5139479;27;19934;-80
2022/04/27 14:02:51;;;;;;;;;;;;;;;;;;5139443;27;19911;-77
2022/04/27 14:05:16;;;;;;;;;;;;;;;;;;5105057;27;19911;-77
2022/04/27 14:07:45;;;;;;;;;;;;;;;;;;5121213;27;19922;-77
2022/04/27 14:10:10;;;;;;;;;;;;;;;;;;5139141;27;19911;-77
2022/04/27 14:15:20;;;;;;;;;;;;;;;;;;5124047;27;19919;-77
2022/04/27 14:20:31;;;;;;;;;;;;;;;;;;5139429;27;19970;-78
2022/04/27 14:22:56;;;;;;;;;;;;;;;;;;5138991;27;19964;-78
2022/04/27 14:25:24;;;;;;;;;;;;;;;;;;5139539;27;19911;-79
2022/04/27 14:27:50;;;;;;;;;;;;;;;;;;5121288;27;19912;-79
2022/04/27 14:30:17;;;;;;;;;;;;;;;;;;5121012;27;19911;-78
2022/04/27 14:32:48;;;;;;;;;;;;;;;;;;5120736;27;19921;-78
2022/04/27 14:35:16;;;;;;;;;;;;;;;;;;5138931;27;19968;-78
2022/04/27 14:37:41;;;;;;;;;;;;;;;;;;5139556;27;19923;-78
2022/04/27 14:40:06;;;;;;;;;;;;;;;;;;5121135;27;19911;-77
2022/04/27 14:42:34;;;;;;;;;;;;;;;;;;5139260;27;19912;-79
2022/04/27 14:44:59;;;;;;;;;;;;;;;;;;5138541;27;19942;-79
2022/04/27 14:47:24;;;;;;;;;;;;;;;;;;5120469;27;20224;-78
2022/04/27 14:49:50;;;;;;;;;;;;;;;;;;5138419;27;19911;-78
2022/04/27 14:52:15;;;;;;;;;;;;;;;;;;5120307;27;19911;-78
2022/04/27 14:54:40;;;;;;;;;;;;;;;;;;5120435;27;19911;-78
2022/04/27 14:57:06;;;;;;;;;;;;;;;;;;5120736;27;20218;-79
2022/04/27 14:59:31;;;;;;;;;;;;;;;;;;5138745;27;19918;-79
2022/04/27 15:01:57;;;;;;;;;;;;;;;;;;5138311;27;19922;-79
2022/04/27 15:04:22;;;;;;;;;;;;;;;;;;5120446;27;20225;-77
2022/04/27 15:06:47;;;;;;;;;;;;;;;;;;5138586;27;20305;-79
2022/04/27 15:09:15;;;;;;;;;;;;;;;;;;5120353;27;19916;-80
2022/04/27 15:11:42;;;;;;;;;;;;;;;;;;5138208;27;19911;-77
2022/04/27 15:14:07;;;;;;;;;;;;;;;;;;5138157;27;19916;-78
2022/04/27 15:16:35;;;;;;;;;;;;;;;;;;5120268;27;19972;-80
2022/04/27 15:19:02;;;;;;;;;;;;;;;;;;5138873;27;19923;-78
2022/04/27 15:24:15;;;;;;;;;;;;;;;;;;5138770;27;20248;-78
2022/04/27 15:26:59;;;;;;;;;;;;;;;;;;5121036;27;19911;-77
2022/04/27 15:29:27;;;;;;;;;;;;;;;;;;5138135;27;20323;-77
2022/04/27 15:31:52;;;;;;;;;;;;;;;;;;5138192;27;19998;-77
2022/04/27 15:34:20;;;;;;;;;;;;;;;;;;5138273;27;20369;-76
2022/04/27 15:36:47;;;;;;;;;;;;;;;;;;5120115;27;19915;-76
2022/04/27 15:39:15;;;;;;;;;;;;;;;;;;5138252;27;20028;-77
2022/04/27 15:41:45;;;;;;;;;;;;;;;;;;5138242;27;20205;-77
2022/04/27 15:44:12;;;;;;;;;;;;;;;;;;5103489;27;19927;-74
2022/04/27 15:46:41;;;;;;;;;;;;;;;;;;5137443;27;20336;-77
2022/04/27 15:49:11;;;;;;;;;;;;;;;;;;5119209;27;19999;-77
2022/04/27 15:51:39;;;;;;;;;;;;;;;;;;5137475;27;19954;-77
2022/04/27 15:54:04;;;;;;;;;;;;;;;;;;5119665;27;19927;-76
2022/04/27 15:56:29;;;;;;;;;;;;;;;;;;5137898;27;19911;-75
2022/04/27 15:58:55;;;;;;;;;;;;;;;;;;5137969;27;19911;-75
2022/04/27 16:01:21;;;;;;;;;;;;;;;;;;5120582;27;19912;-75
2022/04/27 16:03:48;;;;;;;;;;;;;;;;;;5137140;27;19916;-75
2022/04/27 16:06:14;;;;;;;;;;;;;;;;;;5119449;27;19995;-74
2022/04/27 16:08:39;;;;;;;;;;;;;;;;;;5138075;27;20344;-75
2022/04/27 16:11:05;;;;;;;;;;;;;;;;;;5138590;27;20040;-75
2022/04/27 16:13:31;;;;;;;;;;;;;;;;;;5119639;27;19922;-75
2022/04/27 16:15:59;;;;;;;;;;;;;;;;;;5120256;27;20350;-74
2022/04/27 16:18:24;;;;;;;;;;;;;;;;;;5137441;27;19937;-75
2022/04/27 16:23:33;;;;;;;;;;;;;;;;;;5139210;27;20338;-76
2022/04/27 16:25:58;;;;;;;;;;;;;;;;;;5138052;27;19911;-76
2022/04/27 16:28:26;;;;;;;;;;;;;;;;;;5137770;27;19919;-74
2022/04/27 16:30:52;;;;;;;;;;;;;;;;;;5138175;27;19954;-75
2022/04/27 16:33:20;;;;;;;;;;;;;;;;;;5137555;27;20374;-74
2022/04/27 16:35:45;;;;;;;;;;;;;;;;;;5137363;27;20038;-75
2022/04/27 16:38:10;;;;;;;;;;;;;;;;;;5137137;27;19947;-75
2022/04/27 16:40:35;;;;;;;;;;;;;;;;;;5137155;27;19911;-74
2022/04/27 16:43:03;;;;;;;;;;;;;;;;;;5137059;27;20359;-74
2022/04/27 16:45:28;;;;;;;;;;;;;;;;;;5118642;28;20306;-76
2022/04/27 16:47:55;;;;;;;;;;;;;;;;;;5139334;27;19933;-76
2022/04/27 16:50:20;;;;;;;;;;;;;;;;;;5122584;27;20002;-74
2022/04/27 16:52:46;;;;;;;;;;;;;;;;;;5122047;27;20312;-75
2022/04/27 16:55:12;;;;;;;;;;;;;;;;;;5139265;27;19980;-74
2022/04/27 16:57:39;;;;;;;;;;;;;;;;;;5139337;27;19968;-75
2022/04/27 17:02:49;;;;;;;;;;;;;;;;;;5140395;27;19918;-76
2022/04/27 17:05:14;;;;;;;;;;;;;;;;;;5140016;27;19919;-76
2022/04/27 17:07:42;;;;;;;;;;;;;;;;;;5140072;27;19911;-75
2022/04/27 17:10:10;;;;;;;;;;;;;;;;;;5139630;28;19916;-75
2022/04/27 17:12:35;;;;;;;;;;;;;;;;;;5138653;28;20358;-76
2022/04/27 17:15:00;;;;;;;;;;;;;;;;;;5139470;27;19912;-75
2022/04/27 17:17:25;;;;;;;;;;;;;;;;;;5140255;27;19994;-74
2022/04/27 17:19:56;;;;;;;;;;;;;;;;;;5122408;27;20218;-74
2022/04/27 17:22:21;;;;;;;;;;;;;;;;;;5140328;27;20366;-74
2022/04/27 17:24:48;;;;;;;;;;;;;;;;;;5122939;27;19916;-74
2022/04/27 17:27:29;;;;;;;;;;;;;;;;;;5143029;27;19939;-74
2022/04/27 17:30:05;;;;;;;;;;;;;;;;;;5143574;27;19920;-74
2022/04/27 17:32:31;;;;;;;;;;;;;;;;;;5143699;27;20247;-75
2022/04/27 17:34:56;;;;;;;;;;;;;;;;;;5143238;27;20010;-74